Time;durP1;ratioP1;P1;durP2;ratioP2;P2;SDS_P1;SDS_P2;PMS_P1;PMS_P2;Temp;Humidity;BMP_temperature;BMP_pressure;BME280_temperature;BME280_humidity;BME280_pressure;Samples;Min_cycle;Max_cycle;Signal;HPM_P1;HPM_P2
2022/06/25 00:00:14;;;;;;;1.60;1.17;;;;;;;21.49;56.35;100762.19;5091542;28;20051;-60
2022/06/25 00:02:42;;;;;;;3.85;1.38;;;;;;;21.34;56.47;100752.28;5099028;28;20055;-59
2022/06/25 00:05:28;;;;;;;1.73;1.55;;;;;;;21.44;56.42;100763.06;5103756;28;20040;-60
2022/06/25 00:07:56;;;;;;;6.32;1.73;;;;;;;21.43;56.51;100770.47;5094672;28;20055;-60
2022/06/25 00:10:24;;;;;;;4.78;1.40;;;;;;;21.41;56.39;100780.88;5103679;28;20044;-60
2022/06/25 00:12:53;;;;;;;2.50;1.45;;;;;;;21.41;56.50;100785.53;5095943;28;20052;-60
2022/06/25 00:15:20;;;;;;;5.10;1.50;;;;;;;21.38;56.26;100778.75;5100860;28;20058;-60
2022/06/25 00:17:48;;;;;;;2.13;1.25;;;;;;;21.37;56.56;100779.84;5102726;28;20048;-60
2022/06/25 00:20:16;;;;;;;2.15;1.38;;;;;;;21.36;56.50;100785.59;5107103;28;20624;-60
2022/06/25 00:22:43;;;;;;;1.75;1.38;;;;;;;21.34;56.57;100785.91;5096984;28;20079;-60
2022/06/25 00:25:11;;;;;;;2.05;1.58;;;;;;;21.32;56.44;100779.91;5091678;28;20048;-61
2022/06/25 00:27:39;;;;;;;1.67;1.25;;;;;;;21.31;56.36;100775.56;5102880;28;20059;-60
2022/06/25 00:30:09;;;;;;;1.42;1.30;;;;;;;21.30;56.43;100784.06;5099326;28;20079;-60
2022/06/25 00:32:37;;;;;;;3.10;1.33;;;;;;;21.28;56.48;100778.88;5102878;28;20171;-60
2022/06/25 00:35:06;;;;;;;1.63;1.20;;;;;;;21.28;56.40;100786.28;5102334;28;20047;-60
2022/06/25 00:37:33;;;;;;;2.03;1.40;;;;;;;21.26;56.49;100783.84;5102042;28;20071;-60
2022/06/25 00:40:02;;;;;;;1.50;1.25;;;;;;;21.25;56.57;100782.19;5100631;28;20051;-60
2022/06/25 00:42:29;;;;;;;3.40;1.27;;;;;;;21.25;56.52;100789.59;5100793;28;20492;-60
2022/06/25 00:44:57;;;;;;;3.05;1.50;;;;;;;21.24;56.49;100787.97;5098672;28;20052;-60
2022/06/25 00:47:27;;;;;;;1.30;1.17;;;;;;;21.22;56.52;100781.97;5101465;28;20048;-60
2022/06/25 00:49:55;;;;;;;2.30;1.17;;;;;;;21.21;56.48;100789.34;5102756;28;20075;-60
2022/06/25 00:52:26;;;;;;;2.50;1.40;;;;;;;21.21;56.53;100785.78;5100166;28;20071;-60
2022/06/25 00:54:55;;;;;;;2.58;1.95;;;;;;;21.16;56.55;100786.66;5097277;28;20048;-60
2022/06/25 00:57:25;;;;;;;4.68;1.55;;;;;;;21.16;56.55;100791.31;5103678;28;20073;-60
2022/06/25 00:59:58;;;;;;;3.40;1.10;;;;;;;21.16;56.45;100794.88;5102334;28;20074;-60
2022/06/25 01:02:27;;;;;;;3.38;1.40;;;;;;;21.15;56.26;100793.25;5094751;28;20516;-60
2022/06/25 01:04:55;;;;;;;2.15;1.40;;;;;;;21.11;56.21;100793.03;5101754;28;20130;-60
2022/06/25 01:07:23;;;;;;;1.85;1.20;;;;;;;21.13;56.29;100790.81;5102374;28;20048;-61
2022/06/25 01:09:52;;;;;;;2.88;1.33;;;;;;;21.12;56.52;100796.56;5101933;28;20075;-60
2022/06/25 01:12:20;;;;;;;2.63;1.25;;;;;;;21.11;56.42;100797.66;5092584;28;20048;-60
2022/06/25 01:15:00;;;;;;;6.55;1.50;;;;;;;21.09;56.31;100800.69;5098593;28;21625;-60
2022/06/25 01:17:30;;;;;;;5.80;1.45;;;;;;;21.08;56.43;100803.72;5094580;28;20094;-60
2022/06/25 01:19:58;;;;;;;3.05;1.42;;;;;;;21.07;56.43;100807.56;5104810;28;20048;-60
2022/06/25 01:22:27;;;;;;;4.35;1.75;;;;;;;21.06;56.42;100822.31;5101794;28;20059;-60
2022/06/25 01:24:55;;;;;;;1.65;1.20;;;;;;;21.04;56.61;100816.34;5092734;28;20071;-60
2022/06/25 01:27:23;;;;;;;3.47;1.27;;;;;;;21.01;56.71;100815.00;5098544;28;20067;-60
2022/06/25 01:29:50;;;;;;;1.33;1.20;;;;;;;21.00;56.40;100823.50;5092670;28;20498;-60
2022/06/25 01:32:18;;;;;;;2.13;1.45;;;;;;;20.98;56.42;100831.19;5098220;28;20045;-61
2022/06/25 01:34:46;;;;;;;3.33;1.50;;;;;;;20.97;56.25;100827.63;5102310;28;20052;-60
2022/06/25 01:37:14;;;;;;;3.15;1.73;;;;;;;20.96;56.31;100838.84;5099407;28;20043;-60
2022/06/25 01:39:43;;;;;;;4.25;1.48;;;;;;;20.94;56.36;100833.66;5095682;28;20048;-60
2022/06/25 01:42:58;;;;;;;6.15;1.92;;;;;;;20.93;56.36;100832.03;5100434;28;20060;-61
2022/06/25 01:44:58;;;;;;;2.63;1.60;;;;;;;20.91;56.33;100839.72;5101211;28;20048;-60
2022/06/25 01:47:26;;;;;;;4.30;1.50;;;;;;;20.90;56.29;100842.75;5099248;28;20091;-60
2022/06/25 01:49:54;;;;;;;3.00;1.48;;;;;;;20.84;56.27;100830.25;5102015;28;20090;-60
2022/06/25 01:52:21;;;;;;;1.73;1.42;;;;;;;20.86;56.43;100837.03;5097966;28;20486;-60
2022/06/25 01:54:50;;;;;;;2.45;1.45;;;;;;;20.86;56.61;100847.16;5097361;28;20086;-60
2022/06/25 01:57:18;;;;;;;5.60;2.10;;;;;;;20.84;56.59;100847.44;5088753;28;20036;-60
2022/06/25 01:59:48;;;;;;;5.30;1.77;;;;;;;20.83;56.51;100853.19;5099624;28;20091;-59
2022/06/25 02:02:16;;;;;;;3.25;1.52;;;;;;;20.81;56.36;100856.22;5100959;28;20050;-59
2022/06/25 02:04:44;;;;;;;4.72;1.65;;;;;;;20.80;56.37;100857.34;5097388;28;20048;-59
2022/06/25 02:07:12;;;;;;;2.83;1.60;;;;;;;20.77;56.60;100866.94;5101939;28;20044;-60
2022/06/25 02:09:39;;;;;;;1.80;1.52;;;;;;;20.77;56.50;100868.88;5101439;28;20048;-60
2022/06/25 02:12:09;;;;;;;2.83;1.58;;;;;;;20.75;56.55;100863.69;5100789;28;20083;-60
2022/06/25 02:14:37;;;;;;;4.05;1.70;;;;;;;20.73;56.45;100860.44;5096665;28;20040;-60
2022/06/25 02:17:05;;;;;;;1.83;1.40;;;;;;;20.73;56.62;100865.09;5101897;28;20088;-60
2022/06/25 02:19:33;;;;;;;2.33;1.70;;;;;;;20.71;56.40;100872.75;5106821;28;20043;-60
2022/06/25 02:22:01;;;;;;;2.75;1.40;;;;;;;20.71;56.61;100876.28;5095139;28;20043;-59
2022/06/25 02:24:28;;;;;;;2.80;1.55;;;;;;;20.65;56.59;100868.44;5094365;28;20180;-58
2022/06/25 02:26:56;;;;;;;2.95;1.65;;;;;;;20.68;56.36;100879.59;5103156;28;20063;-59
2022/06/25 02:29:25;;;;;;;1.70;1.50;;;;;;;20.66;56.52;100881.81;5101421;28;20089;-60
2022/06/25 02:31:53;;;;;;;3.13;1.60;;;;;;;20.66;56.49;100881.81;5099862;28;20044;-60
2022/06/25 02:34:21;;;;;;;2.20;1.55;;;;;;;20.65;56.48;100885.66;5104664;28;20192;-60
2022/06/25 02:36:49;;;;;;;2.05;1.50;;;;;;;20.64;56.33;100880.47;5103262;28;20068;-60
2022/06/25 02:39:17;;;;;;;2.22;1.63;;;;;;;20.63;56.08;100892.50;5100562;28;20051;-59
2022/06/25 02:41:45;;;;;;;4.28;1.58;;;;;;;20.63;56.45;100892.50;5098526;28;20083;-60
2022/06/25 02:44:13;;;;;;;2.72;1.60;;;;;;;20.60;56.27;100893.88;5104201;28;20048;-60
2022/06/25 02:46:42;;;;;;;4.53;1.73;;;;;;;20.60;56.37;100899.34;5104716;28;20079;-59
2022/06/25 02:49:10;;;;;;;2.70;1.90;;;;;;;20.58;56.26;100898.81;5106401;28;20044;-60
2022/06/25 02:51:38;;;;;;;3.78;1.60;;;;;;;20.59;56.17;100910.56;5098972;28;20044;-60
2022/06/25 02:54:05;;;;;;;3.13;1.60;;;;;;;20.43;56.51;100888.84;5103525;28;20056;-60
2022/06/25 02:59:18;;;;;;;5.75;1.40;;;;;;;20.55;56.34;100915.78;5106678;28;20049;-59
2022/06/25 03:01:47;;;;;;;2.08;1.48;;;;;;;20.54;56.41;100913.34;5104854;28;20052;-58
2022/06/25 03:04:15;;;;;;;2.17;1.40;;;;;;;20.53;56.60;100906.25;5101908;28;20044;-60
2022/06/25 03:06:43;;;;;;;2.25;1.50;;;;;;;20.51;56.57;100900.25;5102074;28;20131;-60
2022/06/25 03:09:11;;;;;;;4.05;1.92;;;;;;;20.46;56.45;100895.66;5101195;28;20059;-59
2022/06/25 03:11:39;;;;;;;2.58;1.88;;;;;;;20.48;56.57;100903.56;5092103;28;20048;-60
2022/06/25 03:14:07;;;;;;;6.07;1.92;;;;;;;20.46;56.56;100899.19;5100280;28;20091;-60
2022/06/25 03:16:35;;;;;;;3.15;1.70;;;;;;;20.44;56.81;100904.13;5103481;28;20055;-58
2022/06/25 03:19:04;;;;;;;3.60;1.85;;;;;;;20.42;56.64;100898.13;5100426;28;20048;-59
2022/06/25 03:21:32;;;;;;;3.22;1.52;;;;;;;20.42;56.64;100900.88;5100332;28;20060;-60
2022/06/25 03:24:00;;;;;;;2.50;1.80;;;;;;;20.41;56.61;100907.44;5086263;28;20060;-59
2022/06/25 03:26:27;;;;;;;3.13;1.55;;;;;;;20.40;56.63;100902.25;5115721;28;20044;-59
2022/06/25 03:28:55;;;;;;;3.22;1.60;;;;;;;20.37;56.44;100909.06;5103482;28;20075;-59
2022/06/25 03:31:24;;;;;;;2.20;1.60;;;;;;;20.36;56.57;100910.16;5102027;28;20040;-60
2022/06/25 03:33:52;;;;;;;4.38;1.92;;;;;;;20.36;56.54;100917.53;5095281;28;20055;-60
2022/06/25 03:36:21;;;;;;;2.58;1.50;;;;;;;20.34;56.36;100912.38;5101028;28;20071;-60
2022/06/25 03:38:49;;;;;;;2.65;1.58;;;;;;;20.33;56.40;100916.19;5101737;28;20158;-59
2022/06/25 03:41:36;;;;;;;2.78;1.60;;;;;;;20.32;56.35;100911.03;5100353;28;20040;-60
2022/06/25 03:44:05;;;;;;;2.72;2.08;;;;;;;20.27;56.34;100911.06;5093717;28;20055;-60
2022/06/25 03:46:33;;;;;;;3.28;1.70;;;;;;;20.31;56.43;100914.84;5102220;28;20090;-60
2022/06/25 03:49:02;;;;;;;2.25;1.80;;;;;;;20.28;56.47;100913.50;5098864;28;20055;-60
2022/06/25 03:51:32;;;;;;;2.47;1.90;;;;;;;20.29;56.37;100925.25;5102500;28;20044;-60
2022/06/25 03:54:00;;;;;;;2.90;1.73;;;;;;;20.27;56.42;100921.97;5102417;28;20074;-60
2022/06/25 03:56:28;;;;;;;3.28;1.80;;;;;;;20.27;56.34;100919.25;5099770;28;20056;-60
2022/06/25 03:58:56;;;;;;;2.28;1.67;;;;;;;20.26;56.22;100923.91;5093160;28;20056;-59
2022/06/25 04:01:24;;;;;;;2.30;1.88;;;;;;;20.24;56.47;100920.63;5091900;28;20040;-59
2022/06/25 04:03:51;;;;;;;2.20;1.80;;;;;;;20.26;56.27;100923.09;5103088;28;20135;-59
2022/06/25 04:06:20;;;;;;;2.55;1.70;;;;;;;20.26;56.59;100923.09;5102191;28;20051;-60
2022/06/25 04:08:49;;;;;;;6.40;2.00;;;;;;;20.25;56.39;100919.53;5097582;28;20083;-60
2022/06/25 04:11:17;;;;;;;2.92;1.73;;;;;;;20.25;56.50;100918.72;5103236;28;20077;-60
2022/06/25 04:13:45;;;;;;;2.22;1.38;;;;;;;20.20;56.26;100922.31;5097620;28;20048;-59
2022/06/25 04:16:13;;;;;;;2.35;1.60;;;;;;;20.22;56.17;100920.09;5099762;28;20322;-59
2022/06/25 04:18:41;;;;;;;2.95;1.52;;;;;;;20.23;56.30;100921.75;5100967;28;20040;-60
2022/06/25 04:21:09;;;;;;;2.45;1.73;;;;;;;20.21;56.38;100918.47;5100579;28;20047;-59
2022/06/25 04:23:36;;;;;;;2.15;1.77;;;;;;;20.22;56.42;100924.75;5097448;28;20083;-60
2022/06/25 04:26:05;;;;;;;3.13;1.95;;;;;;;20.22;56.39;100925.56;5101425;28;20048;-60
2022/06/25 04:31:19;;;;;;;2.85;1.60;;;;;;;20.22;56.25;100939.22;5097400;28;20076;-60
2022/06/25 04:33:47;;;;;;;2.58;1.70;;;;;;;20.21;56.46;100942.22;5104876;28;20047;-60
2022/06/25 04:36:14;;;;;;;2.55;1.67;;;;;;;20.18;56.52;100945.53;5099478;28;20067;-60
2022/06/25 04:38:42;;;;;;;3.35;1.90;;;;;;;20.07;56.62;100921.03;5102811;28;20059;-59
2022/06/25 04:41:11;;;;;;;1.70;1.58;;;;;;;20.18;56.51;100946.34;5098606;28;20102;-60
2022/06/25 04:43:39;;;;;;;2.65;1.55;;;;;;;20.18;56.74;100943.59;5097927;28;20070;-60
2022/06/25 04:46:07;;;;;;;2.97;1.80;;;;;;;20.17;56.90;100952.88;5100496;28;20540;-60
2022/06/25 04:48:35;;;;;;;1.83;1.70;;;;;;;20.18;56.68;100959.16;5097912;28;20051;-60
2022/06/25 04:51:05;;;;;;;3.75;1.60;;;;;;;20.15;57.03;100958.63;5101582;28;20080;-59
2022/06/25 04:53:33;;;;;;;3.10;2.28;;;;;;;20.17;56.88;100954.81;5094651;28;20048;-60
2022/06/25 04:56:01;;;;;;;4.88;2.05;;;;;;;20.17;56.70;100960.25;5100977;28;20052;-60
2022/06/25 04:58:30;;;;;;;2.40;1.75;;;;;;;20.19;56.54;100963.53;5097235;28;20067;-60
2022/06/25 05:00:59;;;;;;;5.32;1.95;;;;;;;20.05;56.59;100945.06;5100984;28;20122;-60
2022/06/25 05:03:27;;;;;;;2.63;1.73;;;;;;;20.20;56.44;100970.63;5101833;28;20105;-60
2022/06/25 05:05:55;;;;;;;3.17;2.30;;;;;;;20.21;56.60;100964.06;5098340;28;20134;-60
2022/06/25 05:08:22;;;;;;;3.22;1.55;;;;;;;20.21;56.66;100967.59;5103586;28;20067;-60
2022/06/25 05:10:51;;;;;;;3.25;2.05;;;;;;;20.20;56.79;100971.44;5087919;28;20235;-59
2022/06/25 05:13:19;;;;;;;3.03;1.75;;;;;;;20.19;56.58;100972.53;5093007;28;20048;-59
2022/06/25 05:15:48;;;;;;;2.72;1.60;;;;;;;20.22;56.58;100976.59;5096958;28;20056;-59
2022/06/25 05:18:16;;;;;;;2.22;1.45;;;;;;;20.21;56.67;100980.44;5098120;28;20052;-59
2022/06/25 05:20:44;;;;;;;3.30;2.05;;;;;;;20.20;56.82;100982.34;5096995;28;20627;-59
2022/06/25 05:23:13;;;;;;;2.80;1.73;;;;;;;20.19;56.73;100977.97;5093951;28;20067;-60
2022/06/25 05:25:42;;;;;;;3.47;1.90;;;;;;;20.20;56.73;100981.53;5094876;28;20292;-60
2022/06/25 05:28:10;;;;;;;4.18;1.88;;;;;;;20.21;56.68;100989.44;5097281;28;20087;-60
2022/06/25 05:30:37;;;;;;;3.03;2.25;;;;;;;20.23;57.07;100981.78;5099673;28;20353;-60
2022/06/25 05:33:07;;;;;;;1.77;1.52;;;;;;;20.23;57.03;100981.78;5099595;28;20115;-59
2022/06/25 05:35:35;;;;;;;2.58;1.73;;;;;;;20.24;56.97;100979.88;5086358;28;20589;-60
2022/06/25 05:38:06;;;;;;;8.30;2.00;;;;;;;20.58;56.39;100993.56;5099793;28;20055;-59
2022/06/25 05:40:34;;;;;;;2.33;1.50;;;;;;;20.45;57.02;100984.94;5094972;28;20052;-60
2022/06/25 05:43:02;;;;;;;2.97;1.80;;;;;;;20.48;56.99;100989.00;5095025;28;20052;-60
2022/06/25 05:45:30;;;;;;;2.35;1.63;;;;;;;20.65;58.17;100994.88;5094438;28;20071;-61
2022/06/25 05:47:58;;;;;;;5.18;2.63;;;;;;;20.59;56.86;101006.13;5099425;28;20048;-60
2022/06/25 05:50:27;;;;;;;4.30;2.10;;;;;;;20.51;57.57;100999.38;5096029;28;20094;-60
2022/06/25 05:52:55;;;;;;;3.45;1.70;;;;;;;20.54;57.49;101007.00;5098607;28;20063;-60
2022/06/25 05:55:23;;;;;;;2.60;1.60;;;;;;;20.49;57.39;101003.47;5096814;28;20124;-61
2022/06/25 05:57:52;;;;;;;3.38;1.85;;;;;;;20.55;57.32;100994.97;5094761;28;20079;-61
2022/06/25 06:00:20;;;;;;;3.53;1.77;;;;;;;20.49;57.33;101003.47;5097232;28;20055;-60
2022/06/25 06:02:47;;;;;;;2.75;1.85;;;;;;;20.45;57.23;101000.50;5108752;28;20048;-60
2022/06/25 06:05:15;;;;;;;3.75;1.80;;;;;;;20.43;57.46;101005.44;5104951;28;20465;-61
2022/06/25 06:07:44;;;;;;;5.65;1.73;;;;;;;20.42;57.37;101009.25;5101786;28;20059;-63
2022/06/25 06:10:12;;;;;;;2.08;1.55;;;;;;;20.43;57.90;101010.88;4746197;28;10000068;-62
2022/06/25 06:12:40;;;;;;;2.25;1.63;;;;;;;20.41;57.86;101013.91;5104496;28;20075;-61
2022/06/25 06:15:09;;;;;;;3.33;1.92;;;;;;;20.49;57.65;101017.94;5101784;28;20036;-61
2022/06/25 06:17:38;;;;;;;6.50;2.28;;;;;;;20.63;58.28;101023.59;5102432;28;20048;-60
2022/06/25 06:20:07;;;;;;;4.93;2.20;;;;;;;20.88;58.82;101023.34;5099441;28;20177;-61
2022/06/25 06:22:35;;;;;;;2.92;1.60;;;;;;;20.64;57.68;101028.75;5093641;28;20113;-63
2022/06/25 06:25:05;;;;;;;5.35;1.63;;;;;;;20.68;58.88;101029.81;5103214;28;20059;-63
2022/06/25 06:27:33;;;;;;;7.70;2.05;;;;;;;20.56;59.92;101034.81;5097321;28;20479;-61
2022/06/25 06:30:01;;;;;;;4.05;2.28;;;;;;;20.51;59.97;101034.84;5104387;28;20054;-60
2022/06/25 06:32:29;;;;;;;5.18;1.50;;;;;;;20.45;59.75;101028.63;5104043;28;20089;-60
2022/06/25 06:34:56;;;;;;;6.55;1.80;;;;;;;20.35;59.63;101019.66;5102857;28;20096;-60
2022/06/25 06:37:24;;;;;;;4.38;1.70;;;;;;;20.47;59.43;101042.00;5105506;28;20549;-60
2022/06/25 06:39:52;;;;;;;4.18;1.83;;;;;;;20.46;59.35;101032.16;5098491;28;20075;-60
2022/06/25 06:42:21;;;;;;;9.35;2.50;;;;;;;20.48;59.29;101040.06;5101136;28;20052;-60
2022/06/25 06:44:49;;;;;;;8.50;2.15;;;;;;;20.47;59.03;101033.78;5106045;28;20097;-60
2022/06/25 06:47:17;;;;;;;3.33;1.60;;;;;;;20.49;59.24;101042.53;5092629;28;20080;-60
2022/06/25 06:49:44;;;;;;;3.50;1.67;;;;;;;20.49;59.04;101047.16;5103729;28;20047;-59
2022/06/25 06:52:12;;;;;;;6.28;2.00;;;;;;;20.55;59.94;101046.84;5095891;28;20075;-60
2022/06/25 06:54:40;;;;;;;3.97;1.65;;;;;;;20.70;58.69;101044.00;5101231;28;20040;-59
2022/06/25 06:57:08;;;;;;;3.88;1.75;;;;;;;20.59;58.61;101039.72;5100141;28;20098;-60
2022/06/25 06:59:37;;;;;;;3.78;1.92;;;;;;;20.57;58.93;101038.38;5104396;28;20048;-60
2022/06/25 07:02:05;;;;;;;3.38;1.35;;;;;;;20.56;58.84;101043.03;5103958;28;20040;-60
2022/06/25 07:04:34;;;;;;;3.85;1.30;;;;;;;20.56;59.01;101040.28;5093664;28;20102;-61
2022/06/25 07:07:01;;;;;;;5.00;1.75;;;;;;;20.97;59.22;101042.69;5105104;28;20055;-60
2022/06/25 07:09:29;;;;;;;5.95;1.50;;;;;;;21.10;59.63;101042.81;5099198;28;20041;-61
2022/06/25 07:11:57;;;;;;;5.95;1.50;;;;;;;21.04;59.57;101046.72;5100338;28;20048;-61
2022/06/25 07:14:25;;;;;;;4.10;1.73;;;;;;;21.50;58.55;101040.00;5105427;28;20077;-60
2022/06/25 07:16:54;;;;;;;4.60;1.73;;;;;;;21.54;58.34;101049.25;5101610;28;20076;-60
2022/06/25 07:19:21;;;;;;;3.20;1.40;;;;;;;21.52;58.11;101043.28;5100599;28;20036;-60
2022/06/25 07:21:49;;;;;;;2.70;1.83;;;;;;;21.21;58.00;101045.47;5101131;28;20064;-60
2022/06/25 07:24:17;;;;;;;2.35;1.30;;;;;;;21.06;58.33;101051.88;5095432;28;20052;-60
2022/06/25 07:26:45;;;;;;;7.32;1.70;;;;;;;21.01;58.72;101044.56;5104498;28;20059;-61
2022/06/25 07:29:12;;;;;;;4.18;2.00;;;;;;;20.96;58.67;101054.72;5099638;28;20111;-59
2022/06/25 07:31:40;;;;;;;7.07;2.45;;;;;;;20.96;58.77;101052.78;5102333;28;20198;-61
2022/06/25 07:34:17;;;;;;;3.80;1.38;;;;;;;20.99;58.91;101054.13;5104755;28;20158;-60
2022/06/25 07:36:45;;;;;;;6.55;1.80;;;;;;;21.06;59.12;101044.50;5098246;28;20082;-60
2022/06/25 07:39:12;;;;;;;3.45;1.40;;;;;;;21.02;58.72;101050.84;5103840;28;20382;-60
2022/06/25 07:41:40;;;;;;;3.08;1.42;;;;;;;20.96;58.84;101050.06;5100202;28;20072;-60
2022/06/25 07:44:08;;;;;;;5.38;1.55;;;;;;;20.96;58.87;101057.44;5103913;28;20076;-60
2022/06/25 07:46:36;;;;;;;2.50;1.23;;;;;;;20.96;58.92;101058.25;5102480;28;20082;-60
2022/06/25 07:49:04;;;;;;;3.45;1.60;;;;;;;20.92;58.79;101051.72;5104202;28;20074;-61
2022/06/25 07:54:19;;;;;;;3.72;1.65;;;;;;;21.40;58.14;101058.16;5101724;28;20051;-60
2022/06/25 07:56:46;;;;;;;4.32;1.33;;;;;;;21.19;58.54;101050.41;5104311;28;20075;-61
2022/06/25 07:59:14;;;;;;;3.20;1.42;;;;;;;21.43;58.41;101057.56;5102650;28;20058;-61
2022/06/25 08:01:42;;;;;;;1.73;1.33;;;;;;;21.68;58.07;101051.00;5088237;28;20040;-62
2022/06/25 08:04:10;;;;;;;3.75;1.35;;;;;;;21.64;58.15;101051.88;5102919;28;20052;-59
2022/06/25 08:06:41;;;;;;;6.28;1.52;;;;;;;21.39;58.56;101059.25;5104051;28;20119;-60
2022/06/25 08:09:09;;;;;;;2.72;1.20;;;;;;;21.43;58.44;101054.84;5103825;28;20044;-59
2022/06/25 08:11:38;;;;;;;1.40;1.17;;;;;;;21.54;58.63;101060.19;5101599;28;20048;-59
2022/06/25 08:14:06;;;;;;;3.65;1.42;;;;;;;21.49;58.33;101061.06;5102806;28;20044;-60
2022/06/25 08:16:34;;;;;;;6.63;1.92;;;;;;;21.27;58.45;101061.56;5102160;28;20040;-60
2022/06/25 08:19:02;;;;;;;3.03;1.80;;;;;;;21.14;58.81;101070.41;5098345;28;20052;-60
2022/06/25 08:21:30;;;;;;;7.13;1.48;;;;;;;21.22;58.88;101063.53;5094899;28;20075;-58
2022/06/25 08:23:59;;;;;;;10.43;1.73;;;;;;;21.08;59.22;101058.69;5100499;28;20047;-59
2022/06/25 08:26:27;;;;;;;3.30;1.67;;;;;;;21.02;59.45;101054.38;5103667;28;20085;-59
2022/06/25 08:28:55;;;;;;;5.63;1.50;;;;;;;20.99;59.59;101065.88;5100508;28;20051;-60
2022/06/25 08:31:24;;;;;;;6.38;1.70;;;;;;;20.97;59.68;101062.63;5101182;28;20043;-59
2022/06/25 08:33:52;;;;;;;2.45;1.40;;;;;;;20.98;59.83;101066.16;5096759;28;20056;-59
2022/06/25 08:36:19;;;;;;;4.03;1.27;;;;;;;20.98;59.66;101063.44;5103157;28;20185;-59
2022/06/25 08:38:47;;;;;;;2.60;1.20;;;;;;;21.10;59.46;101052.94;5099963;28;20422;-59
2022/06/25 08:41:16;;;;;;;6.95;1.52;;;;;;;21.06;59.46;101055.44;5091709;28;20167;-59
2022/06/25 08:43:44;;;;;;;7.20;1.50;;;;;;;21.02;59.52;101065.31;5102597;28;20052;-59
2022/06/25 08:46:12;;;;;;;3.17;1.38;;;;;;;20.94;59.82;101045.97;5099644;28;20048;-60
2022/06/25 08:48:43;;;;;;;2.30;1.20;;;;;;;21.08;60.07;101071.53;5097204;28;20107;-60
2022/06/25 08:51:12;;;;;;;3.88;1.38;;;;;;;21.07;59.63;101073.47;5096271;28;20040;-60
2022/06/25 08:53:41;;;;;;;6.30;1.70;;;;;;;21.07;59.99;101062.53;5102178;28;20133;-62
2022/06/25 08:56:10;;;;;;;4.72;1.25;;;;;;;21.05;60.27;101067.47;5097748;28;20098;-61
2022/06/25 08:58:43;;;;;;;13.63;1.90;;;;;;;21.08;60.42;101061.44;5093288;28;20075;-61
2022/06/25 09:01:11;;;;;;;9.13;1.65;;;;;;;21.10;60.41;101069.34;5096299;28;20243;-62
2022/06/25 09:03:40;;;;;;;5.88;1.58;;;;;;;21.05;60.31;101055.72;5095104;28;20043;-62
2022/06/25 09:06:13;;;;;;;2.55;1.40;;;;;;;21.12;60.34;101067.94;5102436;28;20066;-62
2022/06/25 09:08:42;;;;;;;4.28;1.40;;;;;;;21.08;60.13;101061.44;5098779;28;20040;-61
2022/06/25 09:11:10;;;;;;;7.82;1.60;;;;;;;21.09;60.26;101062.25;5101334;28;20048;-62
2022/06/25 09:13:40;;;;;;;9.07;1.90;;;;;;;21.11;60.11;101060.84;5099961;28;20044;-61
2022/06/25 09:16:07;;;;;;;16.98;2.28;;;;;;;21.12;60.10;101065.22;5102590;28;20051;-63
2022/06/25 09:18:35;;;;;;;7.30;1.80;;;;;;;21.11;59.91;101060.84;5103481;28;20058;-62
2022/06/25 09:21:07;;;;;;;7.07;1.70;;;;;;;21.08;60.08;101063.34;5097160;28;20041;-61
2022/06/25 09:23:55;;;;;;;14.23;2.10;;;;;;;21.13;60.07;101066.03;5098433;28;20044;-62
2022/06/25 09:26:22;;;;;;;3.90;1.58;;;;;;;21.14;59.94;101064.94;5095035;28;20138;-62
2022/06/25 09:28:52;;;;;;;6.18;1.73;;;;;;;21.15;59.66;101069.31;5101126;28;20052;-60
2022/06/25 09:31:34;;;;;;;7.10;1.83;;;;;;;21.15;59.46;101061.09;5101111;28;20080;-59
2022/06/25 09:34:03;;;;;;;5.07;1.25;;;;;;;21.13;59.46;101061.38;5093646;28;20072;-60
2022/06/25 09:36:31;;;;;;;3.13;1.40;;;;;;;21.16;59.41;101064.66;5101513;28;20067;-60
2022/06/25 09:38:59;;;;;;;2.33;0.93;;;;;;;21.16;59.53;101065.47;5097356;28;20095;-61
2022/06/25 09:41:27;;;;;;;2.47;1.15;;;;;;;21.16;59.64;101064.66;5097430;28;20052;-60
2022/06/25 09:43:56;;;;;;;4.07;1.48;;;;;;;21.18;59.51;101070.63;5101617;28;20059;-64
2022/06/25 09:46:24;;;;;;;2.95;1.10;;;;;;;21.20;59.67;101063.78;5094875;28;20076;-63
2022/06/25 09:48:51;;;;;;;3.05;1.10;;;;;;;21.22;59.95;101067.06;5099119;28;20083;-63
2022/06/25 09:51:23;;;;;;;4.85;1.17;;;;;;;21.27;60.13;101071.69;5100913;28;20067;-62
2022/06/25 09:53:52;;;;;;;3.92;1.50;;;;;;;21.31;60.47;101068.09;5105736;28;20059;-63
2022/06/25 09:56:22;;;;;;;5.28;1.58;;;;;;;21.38;60.33;101070.47;5096997;28;20059;-64
2022/06/25 09:58:51;;;;;;;5.95;1.77;;;;;;;21.41;60.13;101083.56;5098133;28;20055;-63
2022/06/25 10:01:22;;;;;;;2.85;1.33;;;;;;;21.41;60.01;101078.13;5098457;28;20074;-63
2022/06/25 10:03:51;;;;;;;4.03;1.50;;;;;;;21.43;59.82;101075.91;4737954;28;10000539;-63
2022/06/25 10:06:21;;;;;;;5.38;1.20;;;;;;;21.42;59.92;101071.53;5098957;28;20154;-63
2022/06/25 10:08:51;;;;;;;3.35;1.27;;;;;;;21.47;60.06;101071.50;5097285;28;20076;-64
2022/06/25 10:11:21;;;;;;;5.07;1.20;;;;;;;21.51;60.07;101072.53;5096982;28;20078;-64
2022/06/25 10:13:50;;;;;;;3.13;1.20;;;;;;;21.56;59.99;101075.22;5095364;28;20051;-63
2022/06/25 10:16:21;;;;;;;5.25;1.38;;;;;;;21.59;59.55;101073.81;5096370;28;20052;-63
2022/06/25 10:18:50;;;;;;;6.50;1.20;;;;;;;21.61;59.30;101080.63;5099743;28;20272;-63
2022/06/25 10:21:19;;;;;;;3.33;1.25;;;;;;;21.61;59.18;101072.44;5095515;28;20056;-63
2022/06/25 10:23:51;;;;;;;6.57;1.50;;;;;;;21.44;59.24;101047.44;5089288;28;20044;-63
2022/06/25 10:26:20;;;;;;;6.25;1.40;;;;;;;21.63;59.28;101063.94;5093088;28;20075;-62
2022/06/25 10:28:48;;;;;;;3.35;1.23;;;;;;;21.70;59.05;101069.88;5088918;28;20505;-60
2022/06/25 10:31:17;;;;;;;4.32;1.10;;;;;;;21.78;59.35;101074.72;5098163;28;20048;-59
2022/06/25 10:33:55;;;;;;;6.25;1.15;;;;;;;21.83;59.37;101068.38;5094633;28;20643;-61
2022/06/25 10:36:40;;;;;;;7.68;1.42;;;;;;;21.88;59.30;101063.66;5096040;28;20044;-60
2022/06/25 10:39:41;;;;;;;14.13;3.58;;;;;;;21.94;59.03;101050.72;5093410;28;20083;-60
2022/06/25 10:45:52;;;;;;;6.03;1.77;;;;;;;22.23;59.08;101069.81;5033753;28;20787;-61
2022/06/25 10:48:22;;;;;;;6.15;2.30;;;;;;;22.15;58.28;101045.81;5038869;28;20091;-60
2022/06/25 10:50:55;;;;;;;8.38;2.05;;;;;;;22.35;58.23;101067.44;5043143;28;20033;-61
2022/06/25 10:53:25;;;;;;;5.53;1.45;;;;;;;22.53;58.18;101063.09;5035019;28;20048;-60
2022/06/25 10:56:15;;;;;;;2.92;1.33;;;;;;;22.52;58.25;101065.00;5041273;28;20080;-61
2022/06/25 10:58:48;;;;;;;4.80;1.40;;;;;;;22.57;58.15;101044.91;5037573;28;20061;-59
2022/06/25 11:01:30;;;;;;;2.50;1.27;;;;;;;22.57;58.33;101051.22;5038430;28;20045;-61
2022/06/25 11:04:04;;;;;;;4.00;1.25;;;;;;;22.55;58.27;101050.69;5042710;28;20053;-62
2022/06/25 11:06:38;;;;;;;2.92;1.15;;;;;;;22.65;57.93;101056.03;5051000;28;20056;-61
2022/06/25 11:09:14;;;;;;;3.70;1.45;;;;;;;22.81;57.60;101050.34;5040396;28;20347;-62
2022/06/25 11:11:44;;;;;;;6.20;1.10;;;;;;;22.79;58.11;101053.38;5035007;28;20042;-61
2022/06/25 11:14:21;;;;;;;5.85;1.60;;;;;;;22.93;57.56;101051.50;5094550;28;20043;-61
2022/06/25 11:16:50;;;;;;;5.03;1.08;;;;;;;22.94;57.52;101055.03;5098812;28;20530;-61
2022/06/25 11:19:19;;;;;;;3.47;1.30;;;;;;;22.98;57.26;101047.84;5097238;28;20048;-61
2022/06/25 11:21:50;;;;;;;1.60;1.17;;;;;;;22.96;57.58;101052.81;5107832;28;20048;-60
2022/06/25 11:24:20;;;;;;;3.90;1.40;;;;;;;22.96;57.62;101061.03;5096180;28;20052;-61
2022/06/25 11:29:37;;;;;;;2.58;0.98;;;;;;;22.58;57.95;100999.97;5095479;28;20074;-62
2022/06/25 11:32:05;;;;;;;3.08;1.02;;;;;;;22.94;58.05;101061.34;5100435;28;20040;-62
2022/06/25 11:34:34;;;;;;;4.80;1.02;;;;;;;22.84;58.06;101050.53;5102372;28;20056;-62
2022/06/25 11:37:06;;;;;;;5.35;1.60;;;;;;;22.95;57.71;101070.38;5096716;28;20059;-61
2022/06/25 11:39:35;;;;;;;3.13;1.40;;;;;;;23.00;57.84;101073.84;5100990;28;20056;-63
2022/06/25 11:42:04;;;;;;;2.67;1.30;;;;;;;23.13;57.20;101069.53;5096972;28;20040;-63
2022/06/25 11:44:39;;;;;;;3.65;1.23;;;;;;;23.22;57.06;101062.25;5096551;28;20052;-61
2022/06/25 11:47:07;;;;;;;1.98;1.10;;;;;;;23.35;56.82;101061.44;5099404;28;20073;-63